Latest Weather Observations for Padthaway

IDS60801

Issued at 3:35 pm CDT Thursday 23 October 2014 (issued every 30 minutes, with the page automatically refreshed every 10 minutes)

About weather observations | Map of weather stations | Latest weather observations for SA | Other Formats
Station Details ID: 026100 Name: PADTHAWAY SOUTH Lat: -36.65 Lon: 140.52 Height: 37.0 m
Data from the previous 72 hours. | See also: Recent months at Padthaway
Date/Time
CDT
Temp
°C
App
Temp
°C
Dew
Point
Rel
Hum
%
Delta-T
°C
Wind Press
QNH
hPa
Press
MSL
hPa
Rain
since 9 am
mm
Dir
 
Spd
km/h
Gust
km/h
Spd
kts
Gust
kts
23/03:30pm 26.9 25.8 11.8 39 8.7 SSW 9 17 5 9 - - 0.0
23/03:00pm 26.8 24.7 11.3 38 8.8 SSW 13 20 7 11 - - 0.0
23/02:30pm 26.1 24.8 11.1 39 8.5 S 9 15 5 8 - - 0.0
23/02:00pm 25.1 23.4 11.3 42 7.8 SSE 11 17 6 9 - - 0.0
23/01:30pm 24.7 23.0 11.3 43 7.6 S 11 17 6 9 - - 0.0
23/01:00pm 23.3 21.1 10.7 45 7.0 SSE 13 24 7 13 - - 0.0
23/12:30pm 22.3 20.2 11.1 49 6.2 SSE 13 19 7 10 - - 0.0
23/12:00pm 21.7 19.2 11.1 51 5.9 SSE 15 24 8 13 - - 0.0
23/11:30am 20.1 17.1 10.8 55 5.1 SSE 17 26 9 14 - - 0.0
23/11:00am 19.8 16.3 10.8 56 4.9 SE 20 28 11 15 - - 0.0
23/10:30am 18.5 15.0 10.3 59 4.4 SE 19 28 10 15 - - 0.0
23/10:00am 17.3 13.3 10.4 64 3.7 SE 22 33 12 18 - - 0.0
23/09:30am 16.6 13.4 10.0 65 3.5 SSE 17 24 9 13 - - 0.0
23/09:00am 15.9 12.3 9.8 67 3.2 SE 19 28 10 15 - - 0.0
23/08:30am 14.7 10.5 9.9 73 2.5 SE 22 32 12 17 - - 0.0
23/08:00am 14.2 10.5 10.2 77 2.1 SE 20 28 11 15 - - 0.0
23/07:30am 13.7 9.2 9.9 78 2.0 SSE 24 32 13 17 - - 0.0
23/07:00am 13.6 9.5 10.2 80 1.8 SE 22 32 12 17 - - 0.0
23/06:30am 13.4 9.3 10.2 81 1.7 SE 22 33 12 18 - - 0.0
23/06:00am 13.5 9.5 10.3 81 1.7 SSE 22 32 12 17 - - 0.0
23/05:30am 13.6 10.6 10.6 82 1.6 SSE 17 24 9 13 - - 0.0
23/05:00am 13.5 8.8 10.5 82 1.6 SSE 26 37 14 20 - - 0.0
23/04:30am 13.6 9.2 10.4 81 1.7 SSE 24 35 13 19 - - 0.0
23/04:00am 13.5 9.1 10.5 82 1.6 SSE 24 37 13 20 - - 0.0
23/03:30am 13.5 8.4 10.5 82 1.6 SSE 28 41 15 22 - - 0.0
23/03:00am 13.5 9.1 10.5 82 1.6 SSE 24 37 13 20 - - 0.0
23/02:30am 13.7 9.4 10.7 82 1.6 SSE 24 32 13 17 - - 0.0
23/02:00am 13.7 8.6 10.5 81 1.7 SSE 28 37 15 20 - - 0.0
23/01:30am 13.8 9.8 10.6 81 1.7 S 22 32 12 17 - - 0.0
23/01:00am 14.0 10.5 10.8 81 1.7 SSE 20 33 11 18 - - 0.0
23/12:30am 14.0 10.5 10.8 81 1.7 SSE 20 30 11 16 - - 0.0
23/12:00am 13.9 9.6 10.7 81 1.7 SSE 24 39 13 21 - - 0.0
 
Date/Time
CDT
Temp
°C
App
Temp
°C
Dew
Point
Rel
Hum
%
Delta-T
°C
Wind Press
QNH
hPa
Press
MSL
hPa
Rain
since 9 am
mm
Dir
 
Spd
km/h
Gust
km/h
Spd
kts
Gust
kts
22/11:30pm 14.2 10.0 11.2 82 1.6 SSE 24 39 13 21 - - 0.0
22/11:00pm 14.4 9.6 11.6 83 1.5 SSE 28 43 15 23 - - 0.0
22/10:30pm 14.2 11.0 11.4 83 1.5 SSE 19 30 10 16 - - 0.0
22/10:00pm 14.1 10.0 11.3 83 1.5 SSE 24 35 13 19 - - 0.0
22/09:30pm 14.4 10.3 11.4 82 1.6 S 24 37 13 20 - - 0.0
22/09:00pm 15.1 11.4 11.5 79 1.9 SSE 22 32 12 17 - - 0.0
22/08:30pm 17.3 14.1 12.0 71 2.9 SSE 20 30 11 16 - - 0.0
22/08:00pm 18.5 15.2 11.6 64 3.8 SSE 20 35 11 19 - - 0.0
22/07:30pm 19.5 16.1 11.3 59 4.5 S 20 33 11 18 - - 0.0
22/07:00pm 20.2 17.6 13.2 64 4.0 S 19 26 10 14 - - 0.0
22/06:30pm 21.7 18.9 13.1 58 4.9 S 20 33 11 18 - - 0.0
22/06:00pm 23.4 20.3 13.3 53 5.9 SSW 22 33 12 18 - - 0.0
22/05:30pm 25.4 21.3 11.6 42 7.8 SSW 24 35 13 19 - - 0.0
22/05:00pm 26.1 23.0 12.2 42 8.0 SSW 20 28 11 15 - - 0.0
22/04:30pm 27.4 24.0 11.4 37 9.2 SSW 20 32 11 17 - - 0.0
22/04:00pm 28.1 23.5 11.2 35 9.7 SSW 26 37 14 20 - - 0.0
22/03:30pm 28.6 24.9 11.6 34 9.8 S 22 33 12 18 - - 0.0
22/03:00pm 30.0 25.7 12.0 33 10.5 SW 26 35 14 19 - - 0.0
22/02:30pm 33.1 30.2 11.0 26 12.9 WSW 17 33 9 18 - - 0.0
22/02:00pm 33.2 28.8 7.2 20 14.3 WSW 20 30 11 16 - - 0.0
22/01:30pm 33.7 28.6 7.6 20 14.5 W 24 30 13 16 - - 0.0
22/01:00pm 33.9 31.1 8.5 21 14.3 WNW 13 22 7 12 - - 0.0
22/12:30pm 32.7 29.5 6.8 20 14.1 W 13 19 7 10 - - 0.0
22/12:00pm 31.8 28.9 8.1 23 13.1 W 13 20 7 11 - - 0.0
22/11:30am 30.6 28.2 7.1 23 12.7 W 9 15 5 8 - - 0.0
22/11:00am 30.2 27.7 8.0 25 12.2 W 11 17 6 9 - - 0.0
22/10:30am 29.2 27.7 8.3 27 11.5 W 6 15 3 8 - - 0.0
22/10:00am 28.7 26.0 8.9 29 10.9 W 13 20 7 11 - - 0.0
22/09:30am 27.9 25.7 7.7 28 10.9 N 9 15 5 8 - - 0.0
22/09:00am 26.1 23.5 7.7 31 9.8 N 11 19 6 10 - - 0.0
22/08:30am 24.2 22.2 6.9 33 9.0 N 7 11 4 6 - - 0.0
22/08:00am 22.5 20.6 7.5 38 7.8 N 7 13 4 7 - - 0.0
22/07:30am 20.8 19.2 7.8 43 6.7 E 6 9 3 5 - - 0.0
22/07:00am 18.6 16.6 7.1 47 5.8 S 7 9 4 5 - - 0.0
22/06:30am 21.1 18.5 6.2 38 7.5 NE 9 20 5 11 - - 0.0
22/06:00am 21.4 18.0 6.1 37 7.7 NE 13 20 7 11 - - 0.0
22/05:30am 21.1 18.5 6.2 38 7.5 NNE 9 15 5 8 - - 0.0
22/05:00am 22.2 17.7 6.0 35 8.2 NNE 19 24 10 13 - - 0.0
22/04:30am 22.7 18.0 6.0 34 8.5 NE 20 30 11 16 - - 0.0
22/04:00am 22.3 17.8 6.1 35 8.2 NNE 19 24 10 13 - - 0.0
22/03:30am 22.9 18.2 6.2 34 8.5 NNE 20 30 11 16 - - 0.0
22/03:00am 23.5 18.0 5.9 32 9.0 NNE 24 35 13 19 - - 0.0
22/02:30am 23.5 18.4 5.9 32 9.0 NNE 22 30 12 16 - - 0.0
22/02:00am 23.7 18.6 6.0 32 9.0 NE 22 35 12 19 - - 0.0
22/01:30am 23.7 19.0 6.0 32 9.0 NE 20 32 11 17 - - 0.0
22/01:00am 24.2 18.7 6.0 31 9.3 NE 24 33 13 18 - - 0.0
22/12:30am 24.5 18.6 5.8 30 9.6 NE 26 35 14 19 - - 0.0
22/12:00am 25.2 18.8 5.4 28 10.1 NE 28 43 15 23 - - 0.0
 
Date/Time
CDT
Temp
°C
App
Temp
°C
Dew
Point
Rel
Hum
%
Delta-T
°C
Wind Press
QNH
hPa
Press
MSL
hPa
Rain
since 9 am
mm
Dir
 
Spd
km/h
Gust
km/h
Spd
kts
Gust
kts
21/11:30pm 25.8 19.7 4.9 26 10.6 NE 26 35 14 19 - - 0.0
21/11:00pm 25.5 19.9 3.5 24 10.8 ENE 22 32 12 17 - - 0.0
21/10:30pm 25.4 20.0 2.2 22 11.2 ENE 20 28 11 15 - - 0.0
21/10:00pm 25.3 19.8 2.1 22 11.1 ENE 20 24 11 13 - - 0.0
21/09:30pm 26.0 20.5 2.0 21 11.6 ENE 20 26 11 14 - - 0.0
21/09:00pm 25.8 20.6 2.5 22 11.3 ENE 19 22 10 12 - - 0.0
21/08:30pm 25.7 21.1 3.6 24 10.9 ENE 17 19 9 10 - - 0.0
21/08:00pm 25.1 21.0 4.3 26 10.4 ENE 15 17 8 9 - - 0.0
21/07:30pm 24.6 21.3 6.4 31 9.4 ENE 13 15 7 8 - - 0.0
21/07:00pm 27.2 23.8 6.0 26 11.0 E 13 15 7 8 - - 0.0
21/06:30pm 29.4 25.9 5.5 22 12.5 ENE 13 17 7 9 - - 0.0
21/06:00pm 32.2 28.6 3.2 16 14.8 NE 11 17 6 9 - - 0.0
21/05:30pm 33.1 29.6 1.0 13 15.9 NE 9 13 5 7 - - 0.0
21/05:00pm 33.9 30.6 2.7 14 16.0 N 9 15 5 8 - - 0.0
21/04:30pm 33.7 30.2 1.5 13 16.2 NNE 9 17 5 9 - - 0.0
21/04:00pm 33.0 29.8 2.9 15 15.4 E 9 17 5 9 - - 0.0
21/03:30pm 33.2 28.5 3.1 15 15.5 NE 17 30 9 16 - - 0.0
21/03:00pm 32.7 28.8 3.6 16 15.0 NE 13 20 7 11 - - 0.0
21/02:30pm 32.5 28.4 2.5 15 15.2 N 13 22 7 12 - - 0.0
21/02:00pm 31.4 28.0 4.2 18 14.1 NNE 11 22 6 12 - - 0.0
21/01:30pm 30.3 25.5 2.5 17 13.9 NE 17 24 9 13 - - 0.0
21/01:00pm 29.4 24.6 4.8 21 12.7 ENE 19 24 10 13 - - 0.0
21/12:30pm 28.4 24.6 5.9 24 11.8 NE 15 22 8 12 - - 0.0
21/12:00pm 27.3 23.5 5.6 25 11.2 NE 15 24 8 13 - - 0.0
21/11:30am 25.9 21.0 4.9 26 10.6 NNE 20 28 11 15 - - 0.0
21/11:00am 25.5 21.2 5.1 27 10.4 NNE 17 24 9 13 - - 0.0
21/10:30am 24.1 19.7 5.0 29 9.6 NE 17 24 9 13 - - 0.0
21/10:00am 22.1 18.4 6.3 36 8.0 NE 15 20 8 11 - - 0.0
21/09:30am 20.3 15.5 5.5 38 7.3 NE 20 28 11 15 - - 0.0
21/09:00am 18.3 12.8 5.8 44 6.1 NE 24 35 13 19 - - 0.0
21/08:30am 16.2 10.8 6.3 52 4.8 NE 24 37 13 20 - - 0.0
21/08:00am 14.1 7.4 5.5 56 4.1 NE 30 41 16 22 - - 0.0
21/07:30am 14.0 6.8 5.1 55 4.2 NE 32 43 17 23 - - 0.0
21/07:07am 14.0 7.5 4.9 54 4.2 NE 28 46 15 25 - - 0.0
21/07:00am 13.7 7.2 4.8 55 4.1 NE 28 43 15 23 - - 0.0
21/06:30am 13.4 9.0 4.6 55 4.1 ENE 17 28 9 15 - - 0.0
21/06:00am 13.4 9.7 4.6 55 4.1 ENE 13 24 7 13 - - 0.0
21/05:30am 13.6 8.8 4.7 55 4.1 ENE 19 32 10 17 - - 0.0
21/05:00am 13.5 8.7 4.9 56 4.0 ENE 19 28 10 15 - - 0.0
21/04:30am 13.6 8.8 4.7 55 4.1 ENE 19 28 10 15 - - 0.0
21/04:00am 13.9 8.9 4.5 53 4.3 ENE 20 30 11 16 - - 0.0
21/03:30am 14.1 9.1 4.4 52 4.5 ENE 20 30 11 16 - - 0.0
21/03:00am 14.0 10.3 4.3 52 4.5 E 13 22 7 12 - - 0.0
21/02:30am 14.3 11.0 4.3 51 4.6 E 11 17 6 9 - - 0.0
21/02:00am 14.2 10.8 3.9 50 4.7 E 11 17 6 9 - - 0.0
21/01:30am 15.0 11.9 3.8 47 5.1 ESE 9 15 5 8 - - 0.0
21/01:00am 15.6 11.4 3.7 45 5.5 E 15 20 8 11 - - 0.0
21/12:30am 15.6 11.8 3.7 45 5.5 ESE 13 17 7 9 - - 0.0
21/12:00am 15.1 11.4 4.5 49 4.9 ESE 13 17 7 9 - - 0.0
 
Date/Time
CDT
Temp
°C
App
Temp
°C
Dew
Point
Rel
Hum
%
Delta-T
°C
Wind Press
QNH
hPa
Press
MSL
hPa
Rain
since 9 am
mm
Dir
 
Spd
km/h
Gust
km/h
Spd
kts
Gust
kts
20/11:30pm 15.0 11.7 4.7 50 4.8 SE 11 17 6 9 - - 0.0
20/11:00pm 15.9 12.3 4.9 48 5.2 SE 13 17 7 9 - - 0.0
20/10:30pm 16.1 12.6 5.4 49 5.1 ESE 13 19 7 10 - - 0.0
20/10:00pm 16.2 13.2 5.8 50 5.0 SE 11 15 6 8 - - 0.0
20/09:30pm 16.1 13.1 6.0 51 4.9 SE 11 13 6 7 - - 0.0
20/09:00pm 16.4 13.0 6.0 50 5.0 SE 13 15 7 8 - - 0.0
20/08:30pm 17.2 14.1 5.5 46 5.7 SE 11 13 6 7 - - 0.0
20/08:00pm 19.1 15.8 4.8 39 6.9 SE 11 17 6 9 - - 0.0
20/07:30pm 19.9 16.3 4.8 37 7.3 ESE 13 17 7 9 - - 0.0
20/07:00pm 21.5 17.8 4.6 33 8.3 E 13 17 7 9 - - 0.0
20/06:30pm 23.0 18.6 4.5 30 9.1 ESE 17 24 9 13 - - 0.0
20/06:00pm 23.7 18.9 4.6 29 9.5 SE 19 22 10 12 - - 0.0
20/05:30pm 24.3 20.0 5.1 29 9.7 SE 17 26 9 14 - - 0.0
20/05:00pm 24.2 20.0 5.5 30 9.5 SSE 17 28 9 15 - - 0.0
20/04:30pm 24.0 19.7 5.4 30 9.4 SSE 17 24 9 13 - - 0.0
20/04:00pm 24.5 20.3 5.8 30 9.6 SE 17 24 9 13 - - 0.0

Other Formats:

Comma delimited format used in spreadsheet applications
http://www.bom.gov.au/fwo/IDS60801/IDS60801.95823.axf

JavaScript Object Notation format (JSON) in row-major order
http://www.bom.gov.au/fwo/IDS60801/IDS60801.95823.json